Time;durP1;ratioP1;P1;durP2;ratioP2;P2;SDS_P1;SDS_P2;PMS_P1;PMS_P2;Temp;Humidity;BMP_temperature;BMP_pressure;BME280_temperature;BME280_humidity;BME280_pressure;Samples;Min_cycle;Max_cycle;Signal;HPM_P1;HPM_P2
2021/09/10 00:00:57;;;;;;;8.93;7.10;;;14.60;83.40;;;;;;2074401;28;20193;-69
2021/09/10 00:01:58;;;;;;;8.50;6.10;;;14.60;83.30;;;;;;2073970;28;20212;-67
2021/09/10 00:02:59;;;;;;;8.67;5.57;;;14.60;82.90;;;;;;2074358;28;20182;-67
2021/09/10 00:04:02;;;;;;;8.47;6.40;;;14.60;82.70;;;;;;2074572;28;20212;-67
2021/09/10 00:05:06;;;;;;;7.80;5.85;;;14.60;82.90;;;;;;2074303;28;20243;-66
2021/09/10 00:06:06;;;;;;;9.90;6.07;;;14.60;83.00;;;;;;2074172;28;20247;-66
2021/09/10 00:07:07;;;;;;;9.67;6.53;;;14.60;83.20;;;;;;2074162;28;20617;-67
2021/09/10 00:08:08;;;;;;;6.63;5.43;;;14.60;83.80;;;;;;2074342;28;20189;-67
2021/09/10 00:09:09;;;;;;;8.37;6.03;;;14.60;82.80;;;;;;2073107;28;20178;-66
2021/09/10 00:10:10;;;;;;;10.07;5.88;;;14.60;83.00;;;;;;2074449;28;20374;-66
2021/09/10 00:11:10;;;;;;;8.40;6.00;;;14.60;84.00;;;;;;2074411;28;20174;-66
2021/09/10 00:12:11;;;;;;;6.70;5.00;;;14.50;84.30;;;;;;2074322;28;20483;-65
2021/09/10 00:13:12;;;;;;;9.50;6.20;;;14.50;84.40;;;;;;2074371;28;20177;-67
2021/09/10 00:14:13;;;;;;;7.83;6.20;;;14.50;84.10;;;;;;2074406;28;20184;-67
2021/09/10 00:15:13;;;;;;;7.97;5.90;;;14.50;84.10;;;;;;2073597;28;20590;-66
2021/09/10 00:16:14;;;;;;;7.03;5.63;;;14.50;83.80;;;;;;2073700;28;20449;-67
2021/09/10 00:17:15;;;;;;;7.93;6.07;;;14.60;83.50;;;;;;2073577;28;20653;-66
2021/09/10 00:18:15;;;;;;;7.30;5.73;;;14.60;83.70;;;;;;2074150;28;20253;-66
2021/09/10 00:19:16;;;;;;;7.67;6.00;;;14.60;83.80;;;;;;2073751;28;20169;-67
2021/09/10 00:20:17;;;;;;;10.13;6.10;;;14.50;83.80;;;;;;2073433;28;20170;-66
2021/09/10 00:21:17;;;;;;;7.90;6.03;;;14.50;84.50;;;;;;2072413;28;20249;-66
2021/09/10 00:22:18;;;;;;;8.37;5.70;;;14.60;83.20;;;;;;2072963;28;20723;-67
2021/09/10 00:23:19;;;;;;;8.73;6.53;;;14.70;82.80;;;;;;2074048;28;20240;-66
2021/09/10 00:24:19;;;;;;;7.90;5.90;;;14.70;82.60;;;;;;2074401;28;20540;-67
2021/09/10 00:25:20;;;;;;;6.07;5.47;;;14.70;82.70;;;;;;2074282;28;20228;-68
2021/09/10 00:26:21;;;;;;;8.33;6.13;;;14.70;82.50;;;;;;2074323;28;20212;-66
2021/09/10 00:27:21;;;;;;;8.83;6.53;;;14.70;82.40;;;;;;2074269;28;20170;-66
2021/09/10 00:28:25;;;;;;;7.43;5.93;;;14.70;82.70;;;;;;2074382;28;20243;-67
2021/09/10 00:29:26;;;;;;;8.02;6.35;;;14.60;83.50;;;;;;2074151;28;20178;-66
2021/09/10 00:30:26;;;;;;;6.87;5.80;;;14.60;83.50;;;;;;2074360;28;20178;-66
2021/09/10 00:31:27;;;;;;;7.20;5.87;;;14.70;83.20;;;;;;2073899;28;20197;-66
2021/09/10 00:32:28;;;;;;;8.27;6.53;;;14.60;83.10;;;;;;2074185;28;20201;-66
2021/09/10 00:33:28;;;;;;;8.80;5.70;;;14.70;83.20;;;;;;2074151;28;20186;-67
2021/09/10 00:34:29;;;;;;;8.30;6.10;;;14.70;83.00;;;;;;2074208;28;20178;-66
2021/09/10 00:35:30;;;;;;;8.00;5.97;;;14.70;82.80;;;;;;2074209;28;20554;-66
2021/09/10 00:36:30;;;;;;;6.70;5.53;;;14.80;82.40;;;;;;2074186;28;20181;-67
2021/09/10 00:37:31;;;;;;;8.00;6.30;;;14.80;82.90;;;;;;2074241;28;20700;-67
2021/09/10 00:38:32;;;;;;;8.07;5.67;;;14.70;83.20;;;;;;2074384;28;20178;-66
2021/09/10 00:39:33;;;;;;;7.40;6.23;;;14.70;83.10;;;;;;2074022;28;20655;-66
2021/09/10 00:40:33;;;;;;;10.00;5.93;;;14.70;83.10;;;;;;2074082;28;20331;-67
2021/09/10 00:41:34;;;;;;;8.77;5.60;;;14.70;83.20;;;;;;2074040;28;20209;-66
2021/09/10 00:42:35;;;;;;;6.70;5.80;;;14.60;83.20;;;;;;2074126;28;20178;-67
2021/09/10 00:43:36;;;;;;;8.53;5.97;;;14.70;83.10;;;;;;2074117;28;20593;-66
2021/09/10 00:44:37;;;;;;;8.65;5.80;;;14.70;82.90;;;;;;2073358;28;20185;-66
2021/09/10 00:45:45;;;;;;;7.37;6.00;;;14.70;83.10;;;;;;2073657;28;20178;-66
2021/09/10 00:46:46;;;;;;;9.60;5.70;;;14.70;83.10;;;;;;2073393;28;20206;-66
2021/09/10 00:47:47;;;;;;;9.10;6.07;;;14.70;83.30;;;;;;2073578;28;20169;-67
2021/09/10 00:48:48;;;;;;;7.17;5.80;;;14.70;83.20;;;;;;2074061;28;20694;-66
2021/09/10 00:49:49;;;;;;;8.37;6.33;;;14.70;82.90;;;;;;2074112;28;20174;-66
2021/09/10 00:50:50;;;;;;;8.60;6.38;;;14.80;82.80;;;;;;2073493;28;20667;-66
2021/09/10 00:51:51;;;;;;;11.87;6.60;;;14.80;82.60;;;;;;2073300;28;20248;-67
2021/09/10 00:52:52;;;;;;;6.97;5.53;;;14.80;82.70;;;;;;2073587;28;20981;-67
2021/09/10 00:53:52;;;;;;;8.90;6.50;;;14.80;82.70;;;;;;2073734;28;20186;-66
2021/09/10 00:54:54;;;;;;;10.43;6.47;;;14.80;82.70;;;;;;2074160;28;20192;-67
2021/09/10 00:55:55;;;;;;;8.10;6.90;;;14.80;82.20;;;;;;2074165;28;20170;-68
2021/09/10 00:56:57;;;;;;;7.53;6.37;;;14.90;82.00;;;;;;2074065;28;20184;-67
2021/09/10 00:57:57;;;;;;;8.90;6.23;;;14.90;81.70;;;;;;2073480;28;20216;-66
2021/09/10 00:59:00;;;;;;;8.07;6.23;;;14.90;81.70;;;;;;2065277;28;20417;-67
2021/09/10 01:00:01;;;;;;;10.53;6.40;;;14.90;82.00;;;;;;2073502;28;20204;-68
2021/09/10 01:01:01;;;;;;;12.17;7.00;;;14.90;82.10;;;;;;2073644;28;20463;-67
2021/09/10 01:02:03;;;;;;;8.27;6.47;;;14.90;82.20;;;;;;2073928;28;20399;-66
2021/09/10 01:03:04;;;;;;;8.95;6.25;;;14.90;82.10;;;;;;2073934;28;20220;-67
2021/09/10 01:04:05;;;;;;;11.73;6.30;;;14.90;82.00;;;;;;2074086;28;20255;-66
2021/09/10 01:05:06;;;;;;;8.60;6.40;;;14.90;81.90;;;;;;2073965;28;20185;-67
2021/09/10 01:06:06;;;;;;;8.50;6.33;;;14.90;81.70;;;;;;2073684;28;20640;-66
2021/09/10 01:07:07;;;;;;;9.03;7.63;;;14.90;81.60;;;;;;2073308;28;20412;-67
2021/09/10 01:08:13;;;;;;;9.97;7.13;;;14.90;81.70;;;;;;2073459;28;20555;-66
2021/09/10 01:09:14;;;;;;;8.90;6.60;;;14.90;81.60;;;;;;2073523;28;20178;-67
2021/09/10 01:10:15;;;;;;;9.43;6.40;;;14.90;81.70;;;;;;2073859;28;20516;-66
2021/09/10 01:11:18;;;;;;;9.35;6.28;;;14.90;81.70;;;;;;2072792;28;20185;-67
2021/09/10 01:12:20;;;;;;;8.90;6.55;;;14.90;81.80;;;;;;2073225;28;20223;-66
2021/09/10 01:13:23;;;;;;;9.40;6.80;;;14.90;81.80;;;;;;2073685;28;20180;-66
2021/09/10 01:14:25;;;;;;;7.85;6.32;;;14.90;81.80;;;;;;2081281;28;20416;-67
2021/09/10 01:15:26;;;;;;;8.25;6.50;;;14.90;82.30;;;;;;2073071;28;20185;-67
2021/09/10 01:16:26;;;;;;;8.73;7.30;;;14.90;82.80;;;;;;2064996;28;20198;-66
2021/09/10 01:17:27;;;;;;;7.23;6.03;;;14.90;82.70;;;;;;2064970;28;20664;-66
2021/09/10 01:18:28;;;;;;;9.23;6.67;;;15.00;82.30;;;;;;2073025;28;20204;-67
2021/09/10 01:19:31;;;;;;;8.27;6.60;;;15.00;82.10;;;;;;2073085;28;20186;-66
2021/09/10 01:20:31;;;;;;;9.02;6.80;;;15.00;81.80;;;;;;2072844;28;20197;-66
2021/09/10 01:21:32;;;;;;;8.80;7.23;;;14.90;81.70;;;;;;2064663;28;20204;-66
2021/09/10 01:22:33;;;;;;;9.27;5.80;;;14.90;81.80;;;;;;2073065;28;20188;-66
2021/09/10 01:23:34;;;;;;;8.93;6.43;;;14.90;82.30;;;;;;2073815;28;20269;-66
2021/09/10 01:25:12;;;;;;;12.53;7.20;;;14.90;82.40;;;;;;2073020;28;20182;-66
2021/09/10 01:26:13;;;;;;;7.65;5.90;;;14.80;82.70;;;;;;2073313;28;20190;-65
2021/09/10 01:27:13;;;;;;;7.70;5.50;;;14.80;82.60;;;;;;2073700;28;20193;-66
2021/09/10 01:28:15;;;;;;;8.50;5.97;;;14.80;82.50;;;;;;2073607;28;20618;-66
2021/09/10 01:29:16;;;;;;;8.50;6.70;;;14.80;82.70;;;;;;2072975;28;20571;-67
2021/09/10 01:30:20;;;;;;;7.30;6.13;;;14.80;83.00;;;;;;2072994;28;20193;-66
2021/09/10 01:31:21;;;;;;;7.88;6.10;;;14.70;83.10;;;;;;2073482;28;20198;-67
2021/09/10 01:32:21;;;;;;;9.27;6.67;;;14.70;83.20;;;;;;2073728;28;20633;-66
2021/09/10 01:33:22;;;;;;;7.80;6.00;;;14.80;83.20;;;;;;2073698;28;20181;-67
2021/09/10 01:34:23;;;;;;;9.90;6.60;;;14.80;83.50;;;;;;2072911;28;20177;-66
2021/09/10 01:35:24;;;;;;;7.40;6.07;;;14.80;83.40;;;;;;2073075;28;20170;-68
2021/09/10 01:36:24;;;;;;;8.37;6.27;;;14.80;83.10;;;;;;2073550;28;20240;-67
2021/09/10 01:37:25;;;;;;;7.50;6.20;;;14.80;82.70;;;;;;2073634;28;20256;-66
2021/09/10 01:38:27;;;;;;;7.40;6.57;;;14.80;82.60;;;;;;2073019;28;20208;-68
2021/09/10 01:39:27;;;;;;;8.52;6.45;;;14.80;82.80;;;;;;2073204;28;20178;-67
2021/09/10 01:40:29;;;;;;;7.90;6.23;;;14.80;82.90;;;;;;2073711;28;20170;-67
2021/09/10 01:41:29;;;;;;;8.23;6.45;;;14.70;82.90;;;;;;2072894;28;20209;-66
2021/09/10 01:42:30;;;;;;;7.10;6.40;;;14.80;82.90;;;;;;2073076;28;20257;-66
2021/09/10 01:43:31;;;;;;;8.43;5.70;;;14.80;82.90;;;;;;2073584;28;20182;-66
2021/09/10 01:44:31;;;;;;;8.10;6.70;;;14.80;82.80;;;;;;2073536;28;20182;-66
2021/09/10 01:45:32;;;;;;;10.27;6.87;;;14.80;82.50;;;;;;2073752;28;20185;-66
2021/09/10 01:46:33;;;;;;;8.10;6.30;;;14.80;82.20;;;;;;2073686;28;20209;-66
2021/09/10 01:47:34;;;;;;;7.83;5.80;;;14.90;82.50;;;;;;2073607;28;20190;-66
2021/09/10 01:48:35;;;;;;;7.35;6.20;;;14.80;82.80;;;;;;2073666;28;20201;-66
2021/09/10 01:49:36;;;;;;;7.53;6.23;;;14.80;83.40;;;;;;2073674;28;20707;-66
2021/09/10 01:50:36;;;;;;;9.70;6.80;;;14.80;83.90;;;;;;2073610;28;20201;-66
2021/09/10 01:51:37;;;;;;;10.13;6.60;;;14.80;83.90;;;;;;2073284;28;20571;-66
2021/09/10 01:52:38;;;;;;;8.03;6.70;;;14.80;83.90;;;;;;2073747;28;20174;-66
2021/09/10 01:53:38;;;;;;;9.10;7.13;;;14.80;83.90;;;;;;2073712;28;20174;-66
2021/09/10 01:54:39;;;;;;;8.17;6.67;;;14.80;83.80;;;;;;2073553;28;20182;-66
2021/09/10 01:55:40;;;;;;;8.33;7.10;;;14.80;83.80;;;;;;2072898;28;20328;-66
2021/09/10 01:56:40;;;;;;;8.80;6.70;;;14.80;83.80;;;;;;2072922;28;20544;-67
2021/09/10 01:57:47;;;;;;;10.00;7.47;;;14.80;83.60;;;;;;2073602;28;20178;-66
2021/09/10 01:58:47;;;;;;;8.90;6.90;;;14.80;83.50;;;;;;2073733;28;20173;-66
2021/09/10 01:59:48;;;;;;;10.03;6.60;;;14.80;83.50;;;;;;2073427;28;20212;-66
2021/09/10 02:00:50;;;;;;;6.90;5.70;;;14.80;83.40;;;;;;2073527;28;20177;-67
2021/09/10 02:01:50;;;;;;;9.18;6.60;;;14.80;83.50;;;;;;2072734;28;20205;-68
2021/09/10 02:02:51;;;;;;;9.40;7.27;;;14.80;83.50;;;;;;2073186;28;20284;-68
2021/09/10 02:03:52;;;;;;;8.27;5.97;;;14.80;83.40;;;;;;2073713;28;20187;-66
2021/09/10 02:04:53;;;;;;;8.63;6.60;;;14.80;83.50;;;;;;2073666;28;20189;-66
2021/09/10 02:05:54;;;;;;;9.07;6.50;;;14.80;83.80;;;;;;2073567;28;20197;-66
2021/09/10 02:06:55;;;;;;;8.20;5.63;;;14.70;84.00;;;;;;2073934;28;20216;-67
2021/09/10 02:07:55;;;;;;;9.17;6.23;;;14.70;84.20;;;;;;2073773;28;20177;-66
2021/09/10 02:08:56;;;;;;;8.87;6.87;;;14.70;84.20;;;;;;2073710;28;20232;-66
2021/09/10 02:09:57;;;;;;;7.93;6.23;;;14.70;84.10;;;;;;2073635;28;20181;-67
2021/09/10 02:10:57;;;;;;;10.83;6.13;;;14.70;84.20;;;;;;2072994;28;20552;-68
2021/09/10 02:12:00;;;;;;;10.53;6.37;;;14.60;84.30;;;;;;2072753;28;20688;-66
2021/09/10 02:13:00;;;;;;;7.87;6.23;;;14.70;84.30;;;;;;2073682;28;20181;-66
2021/09/10 02:14:01;;;;;;;8.57;6.50;;;14.60;84.30;;;;;;2073589;28;20447;-66
2021/09/10 02:15:04;;;;;;;11.13;6.30;;;14.60;84.40;;;;;;2073762;28;20661;-66
2021/09/10 02:16:05;;;;;;;8.05;6.70;;;14.60;84.40;;;;;;2072792;28;20261;-68
2021/09/10 02:17:06;;;;;;;10.40;6.97;;;14.60;84.60;;;;;;2073056;28;20170;-66
2021/09/10 02:18:07;;;;;;;8.57;6.40;;;14.70;84.70;;;;;;2073076;28;20170;-66
2021/09/10 02:19:09;;;;;;;8.17;5.77;;;14.60;84.60;;;;;;2072980;28;20174;-66
2021/09/10 02:20:10;;;;;;;11.10;6.22;;;14.60;84.70;;;;;;2073630;28;20178;-66
2021/09/10 02:21:11;;;;;;;7.45;5.85;;;14.60;84.60;;;;;;2073306;28;20182;-67
2021/09/10 02:22:12;;;;;;;7.40;6.13;;;14.60;84.70;;;;;;2073525;28;20182;-66
2021/09/10 02:23:12;;;;;;;12.07;7.17;;;14.60;84.60;;;;;;2073600;28;20178;-66
2021/09/10 02:24:13;;;;;;;9.40;6.07;;;14.60;84.60;;;;;;2073785;28;20672;-67
2021/09/10 02:25:14;;;;;;;7.05;5.60;;;14.60;84.70;;;;;;2073763;28;20228;-66
2021/09/10 02:26:15;;;;;;;7.80;6.37;;;14.60;84.90;;;;;;2072842;28;20658;-67
2021/09/10 02:27:16;;;;;;;8.63;6.33;;;14.60;85.00;;;;;;2064887;28;20171;-66
2021/09/10 02:28:16;;;;;;;9.13;7.23;;;14.50;85.00;;;;;;2072952;28;20174;-66
2021/09/10 02:29:17;;;;;;;8.37;6.37;;;14.50;85.30;;;;;;2072838;28;20185;-68
2021/09/10 02:30:18;;;;;;;9.40;6.80;;;14.50;85.20;;;;;;2072947;28;20244;-66
2021/09/10 02:31:18;;;;;;;7.90;6.50;;;14.50;85.30;;;;;;2073243;28;20178;-66
2021/09/10 02:32:19;;;;;;;11.87;6.67;;;14.50;85.30;;;;;;2072884;28;20232;-67
2021/09/10 02:33:20;;;;;;;9.00;6.70;;;14.50;85.50;;;;;;2073672;28;20208;-67
2021/09/10 02:34:21;;;;;;;8.37;6.47;;;14.50;85.60;;;;;;2073561;28;20180;-66
2021/09/10 02:35:21;;;;;;;9.83;7.20;;;14.50;85.60;;;;;;2073562;28;20208;-66
2021/09/10 02:36:22;;;;;;;7.43;5.93;;;14.50;85.60;;;;;;2073520;28;20169;-66
2021/09/10 02:37:23;;;;;;;9.50;6.20;;;14.50;85.60;;;;;;2073440;28;20177;-66
2021/09/10 02:38:24;;;;;;;10.47;6.70;;;14.50;85.60;;;;;;2073593;28;20178;-66
2021/09/10 02:39:25;;;;;;;10.45;6.90;;;14.50;85.60;;;;;;2073650;28;20181;-66
2021/09/10 02:40:26;;;;;;;7.83;6.20;;;14.50;85.80;;;;;;2073643;28;20543;-66
2021/09/10 02:41:26;;;;;;;8.13;6.17;;;14.50;86.10;;;;;;2073200;28;20194;-66
2021/09/10 02:42:27;;;;;;;9.80;6.63;;;14.50;86.00;;;;;;2073570;28;20227;-66
2021/09/10 02:43:28;;;;;;;9.00;6.43;;;14.50;85.60;;;;;;2073597;28;20195;-67
2021/09/10 02:44:28;;;;;;;9.10;6.70;;;14.50;85.60;;;;;;2073646;28;20174;-66
2021/09/10 02:45:29;;;;;;;9.53;6.93;;;14.50;85.70;;;;;;2073563;28;20528;-66
2021/09/10 02:46:30;;;;;;;7.87;6.50;;;14.50;85.90;;;;;;2073535;28;20668;-66
2021/09/10 02:47:31;;;;;;;8.52;6.07;;;14.50;86.10;;;;;;2073466;28;20178;-66
2021/09/10 02:48:31;;;;;;;9.90;6.30;;;14.50;86.10;;;;;;2072973;28;20173;-66
2021/09/10 02:49:32;;;;;;;8.87;6.87;;;14.50;86.30;;;;;;2072878;28;20261;-66
2021/09/10 02:50:33;;;;;;;8.83;6.57;;;14.50;86.30;;;;;;2073507;28;20206;-66
2021/09/10 02:51:34;;;;;;;8.63;6.50;;;14.50;86.50;;;;;;2073133;28;20248;-66
2021/09/10 02:52:36;;;;;;;7.07;5.97;;;14.40;86.50;;;;;;2073620;28;20263;-66
2021/09/10 02:53:36;;;;;;;7.43;6.40;;;14.40;86.60;;;;;;2064781;28;20266;-66
2021/09/10 02:54:37;;;;;;;7.93;6.53;;;14.40;86.70;;;;;;2064695;28;20179;-66
2021/09/10 02:55:37;;;;;;;8.77;5.93;;;14.30;86.70;;;;;;2065368;28;20217;-67
2021/09/10 02:56:38;;;;;;;9.03;6.47;;;14.30;87.00;;;;;;2065446;28;20210;-66
2021/09/10 02:57:39;;;;;;;9.50;6.23;;;14.30;87.00;;;;;;2064669;28;20583;-66
2021/09/10 02:58:39;;;;;;;9.83;6.40;;;14.30;87.10;;;;;;2064616;28;20206;-66
2021/09/10 02:59:40;;;;;;;9.23;6.63;;;14.30;87.10;;;;;;2064762;28;20179;-66
2021/09/10 03:00:41;;;;;;;8.50;6.37;;;14.20;87.30;;;;;;2064833;28;20610;-67
2021/09/10 03:01:44;;;;;;;8.43;6.67;;;14.20;87.50;;;;;;2064447;28;20202;-66
2021/09/10 03:02:45;;;;;;;7.70;6.43;;;14.20;87.30;;;;;;2065348;28;20186;-66
2021/09/10 03:03:46;;;;;;;8.93;6.07;;;14.30;87.30;;;;;;2065403;28;20187;-67
2021/09/10 03:04:47;;;;;;;9.97;6.80;;;14.20;87.30;;;;;;2065398;28;20541;-66
2021/09/10 03:05:48;;;;;;;9.80;6.95;;;14.20;87.30;;;;;;2065223;28;20261;-66
2021/09/10 03:06:48;;;;;;;7.33;6.00;;;14.30;87.00;;;;;;2065290;28;20198;-66
2021/09/10 03:07:49;;;;;;;7.97;6.37;;;14.30;87.00;;;;;;2065279;28;20183;-66
2021/09/10 03:08:50;;;;;;;7.47;6.23;;;14.30;87.10;;;;;;2065454;28;20186;-66
2021/09/10 03:09:50;;;;;;;9.20;6.03;;;14.30;86.90;;;;;;2065246;28;20182;-66
2021/09/10 03:10:51;;;;;;;7.60;6.27;;;14.30;87.00;;;;;;2065428;28;20186;-67
2021/09/10 03:11:52;;;;;;;8.13;6.07;;;14.30;87.10;;;;;;2065022;28;20194;-66
2021/09/10 03:12:53;;;;;;;11.27;6.73;;;14.30;87.20;;;;;;2065257;28;20178;-66
2021/09/10 03:13:53;;;;;;;10.37;7.37;;;14.30;87.20;;;;;;2065217;28;20185;-66
2021/09/10 03:14:54;;;;;;;9.37;6.67;;;14.30;87.50;;;;;;2065209;28;20268;-67
2021/09/10 03:15:55;;;;;;;9.60;7.47;;;14.40;87.30;;;;;;2065291;28;20178;-66
2021/09/10 03:16:56;;;;;;;6.67;5.77;;;14.30;87.20;;;;;;2065058;28;20190;-66
2021/09/10 03:17:56;;;;;;;8.60;6.30;;;14.40;87.60;;;;;;2064942;28;20549;-67
2021/09/10 03:18:57;;;;;;;7.63;6.33;;;14.30;87.70;;;;;;2065125;28;20182;-66
2021/09/10 03:19:58;;;;;;;12.95;6.43;;;14.30;87.70;;;;;;2065176;28;20215;-68
2021/09/10 03:20:59;;;;;;;10.33;6.37;;;14.40;87.10;;;;;;2065113;28;20187;-66
2021/09/10 03:22:00;;;;;;;11.47;7.17;;;14.40;86.80;;;;;;2065160;28;20264;-66
2021/09/10 03:23:01;;;;;;;7.40;6.30;;;14.40;86.80;;;;;;2065217;28;20186;-67
2021/09/10 03:24:02;;;;;;;11.25;6.43;;;14.40;86.50;;;;;;2065128;28;20182;-66
2021/09/10 03:25:06;;;;;;;7.35;6.18;;;14.40;86.50;;;;;;2064990;28;20190;-67
2021/09/10 03:26:07;;;;;;;6.22;5.43;;;14.40;86.40;;;;;;2065101;28;20225;-66
2021/09/10 03:27:08;;;;;;;7.37;6.40;;;14.40;86.90;;;;;;2064870;28;20211;-66
2021/09/10 03:28:09;;;;;;;9.13;6.13;;;14.40;87.00;;;;;;2065114;28;20228;-66
2021/09/10 03:29:10;;;;;;;9.13;6.97;;;14.40;87.00;;;;;;2065283;28;20245;-66
2021/09/10 03:30:12;;;;;;;9.70;6.13;;;14.40;87.20;;;;;;2064616;28;20178;-66
2021/09/10 03:31:12;;;;;;;7.93;6.90;;;14.40;87.40;;;;;;2056237;28;20183;-67
2021/09/10 03:32:13;;;;;;;7.73;6.77;;;14.40;87.50;;;;;;2056584;28;20194;-66
2021/09/10 03:33:14;;;;;;;11.33;7.10;;;14.40;87.60;;;;;;2064498;28;20657;-66
2021/09/10 03:34:14;;;;;;;8.00;6.27;;;14.40;87.90;;;;;;2065038;28;20199;-67
2021/09/10 03:35:15;;;;;;;8.33;6.10;;;14.40;88.20;;;;;;2064485;28;20175;-67
2021/09/10 03:36:16;;;;;;;7.70;6.20;;;14.30;88.10;;;;;;2064555;28;20186;-66
2021/09/10 03:37:17;;;;;;;8.47;6.03;;;14.40;87.80;;;;;;2064993;28;20170;-68
2021/09/10 03:38:17;;;;;;;8.70;6.73;;;14.40;87.50;;;;;;2064954;28;20638;-66
2021/09/10 03:39:18;;;;;;;10.13;6.73;;;14.40;87.40;;;;;;2064859;28;20174;-66
2021/09/10 03:40:19;;;;;;;8.77;6.50;;;14.40;87.30;;;;;;2064879;28;20641;-66
2021/09/10 03:41:19;;;;;;;9.90;6.60;;;14.40;87.40;;;;;;2064476;28;20177;-66
2021/09/10 03:42:20;;;;;;;9.63;6.53;;;14.40;87.50;;;;;;2064951;28;20589;-66
2021/09/10 03:43:21;;;;;;;9.90;6.63;;;14.50;87.30;;;;;;2065114;28;20629;-67
2021/09/10 03:44:21;;;;;;;7.30;5.87;;;14.40;87.30;;;;;;2066337;28;20201;-66
2021/09/10 03:45:22;;;;;;;8.20;6.00;;;14.50;87.20;;;;;;2066286;28;20178;-66
2021/09/10 03:46:23;;;;;;;8.10;6.40;;;14.50;87.20;;;;;;2066188;28;20185;-67
2021/09/10 03:47:24;;;;;;;8.97;6.63;;;14.40;87.10;;;;;;2066301;28;20233;-66
2021/09/10 03:48:25;;;;;;;11.40;6.50;;;14.40;87.00;;;;;;2066402;28;20254;-65
2021/09/10 03:49:26;;;;;;;8.63;6.33;;;14.40;87.10;;;;;;2066280;28;20233;-67
2021/09/10 03:50:27;;;;;;;7.82;5.93;;;14.40;87.00;;;;;;2066361;28;20171;-67
2021/09/10 03:51:28;;;;;;;6.90;5.40;;;14.40;87.10;;;;;;2065935;28;20269;-66
2021/09/10 03:52:28;;;;;;;10.53;6.23;;;14.40;87.20;;;;;;2066180;28;20189;-66
2021/09/10 03:53:29;;;;;;;8.23;6.17;;;14.40;87.20;;;;;;2066231;28;20171;-67
2021/09/10 03:54:30;;;;;;;8.37;6.63;;;14.40;87.10;;;;;;2066339;28;20607;-66
2021/09/10 03:55:30;;;;;;;8.73;6.10;;;14.40;87.20;;;;;;2066193;28;20178;-66
2021/09/10 03:56:31;;;;;;;9.53;7.27;;;14.40;87.20;;;;;;2066373;28;20188;-67
2021/09/10 03:57:32;;;;;;;9.27;6.27;;;14.40;86.90;;;;;;2066437;28;20198;-66
2021/09/10 03:58:33;;;;;;;7.07;5.83;;;14.40;86.80;;;;;;2066414;28;20190;-66
2021/09/10 03:59:34;;;;;;;8.45;6.47;;;14.40;88.00;;;;;;2066366;28;20182;-65
2021/09/10 04:00:34;;;;;;;9.17;6.63;;;14.40;87.10;;;;;;2066372;28;20185;-66
2021/09/10 04:01:35;;;;;;;13.17;6.77;;;14.30;87.50;;;;;;2066016;28;20344;-67
2021/09/10 04:02:36;;;;;;;9.93;6.70;;;14.30;87.70;;;;;;2066306;28;20665;-66
2021/09/10 04:03:37;;;;;;;8.50;5.83;;;14.30;88.00;;;;;;2066376;28;20186;-66
2021/09/10 04:04:37;;;;;;;8.10;6.40;;;14.30;88.30;;;;;;2066280;28;20221;-66
2021/09/10 04:05:38;;;;;;;8.67;6.23;;;14.30;88.40;;;;;;2066282;28;20244;-66
2021/09/10 04:06:38;;;;;;;10.07;5.97;;;14.20;88.60;;;;;;2066187;28;20570;-66
2021/09/10 04:07:39;;;;;;;6.43;5.70;;;14.20;89.50;;;;;;2066268;28;20186;-68
2021/09/10 04:08:41;;;;;;;7.57;6.23;;;14.20;89.40;;;;;;2066214;28;20194;-66
2021/09/10 04:09:41;;;;;;;9.63;6.20;;;14.20;89.30;;;;;;2066248;28;20539;-68
2021/09/10 04:10:42;;;;;;;10.13;6.70;;;14.20;89.20;;;;;;2065645;28;20178;-67
2021/09/10 04:11:43;;;;;;;9.48;6.75;;;14.30;88.40;;;;;;2065445;28;20293;-66
2021/09/10 04:12:44;;;;;;;8.10;6.55;;;14.20;88.40;;;;;;2066316;28;20213;-66
2021/09/10 04:13:45;;;;;;;10.17;6.33;;;14.20;88.60;;;;;;2066293;28;20696;-66
2021/09/10 04:14:45;;;;;;;10.23;7.10;;;14.20;88.40;;;;;;2066252;28;20202;-66
2021/09/10 04:15:46;;;;;;;12.47;7.60;;;14.20;88.30;;;;;;2066219;28;20205;-66
2021/09/10 04:16:47;;;;;;;16.27;8.97;;;14.20;88.10;;;;;;2066209;28;20206;-66
2021/09/10 04:17:48;;;;;;;13.43;7.77;;;14.20;88.00;;;;;;2066265;28;20182;-66
2021/09/10 04:18:48;;;;;;;18.63;10.10;;;14.30;87.90;;;;;;2066172;28;20183;-66
2021/09/10 04:19:49;;;;;;;22.07;10.70;;;14.30;87.90;;;;;;2066392;28;20186;-65
2021/09/10 04:20:50;;;;;;;19.77;10.33;;;14.30;87.50;;;;;;2066174;28;20182;-67
2021/09/10 04:21:50;;;;;;;13.27;8.13;;;14.30;87.30;;;;;;2065896;28;20692;-66
2021/09/10 04:22:51;;;;;;;18.60;8.43;;;14.30;87.30;;;;;;2066267;28;20190;-66
2021/09/10 04:23:53;;;;;;;11.87;7.43;;;14.40;87.50;;;;;;2066147;28;20179;-66
2021/09/10 04:24:53;;;;;;;13.40;7.40;;;14.40;87.30;;;;;;2066142;28;20712;-66
2021/09/10 04:25:54;;;;;;;8.20;6.30;;;14.40;87.20;;;;;;2066013;28;20186;-66
2021/09/10 04:26:55;;;;;;;13.40;7.43;;;14.40;87.50;;;;;;2066003;28;20676;-66
2021/09/10 04:27:55;;;;;;;9.50;7.17;;;14.30;87.50;;;;;;2066199;28;20189;-66
2021/09/10 04:28:56;;;;;;;9.47;6.63;;;14.30;87.60;;;;;;2066052;28;20686;-66
2021/09/10 04:29:58;;;;;;;9.77;7.20;;;14.30;87.80;;;;;;2066054;28;20179;-66
2021/09/10 04:30:59;;;;;;;7.80;6.55;;;14.30;87.50;;;;;;2065318;28;20676;-66
2021/09/10 04:31:59;;;;;;;10.40;7.00;;;14.40;87.40;;;;;;2057297;28;20222;-65
2021/09/10 04:33:00;;;;;;;8.70;6.60;;;14.40;87.50;;;;;;2065510;28;20685;-67
2021/09/10 04:34:00;;;;;;;9.37;6.43;;;14.40;87.70;;;;;;2066127;28;20182;-66
2021/09/10 04:35:02;;;;;;;9.17;6.10;;;14.30;87.70;;;;;;2065924;28;20193;-66
2021/09/10 04:36:03;;;;;;;8.48;6.72;;;14.40;87.80;;;;;;2066149;28;20210;-66
2021/09/10 04:37:06;;;;;;;9.67;7.27;;;14.30;87.90;;;;;;2065314;28;20556;-66
2021/09/10 04:38:06;;;;;;;11.10;7.00;;;14.30;88.30;;;;;;2065529;28;20187;-67
2021/09/10 04:39:07;;;;;;;11.17;7.00;;;14.30;88.40;;;;;;2066000;28;20676;-66
2021/09/10 04:40:09;;;;;;;8.23;6.27;;;14.30;88.40;;;;;;2065938;28;20182;-66
2021/09/10 04:41:10;;;;;;;10.40;7.30;;;14.20;88.70;;;;;;2065864;28;20384;-65
2021/09/10 04:42:11;;;;;;;9.60;7.23;;;14.20;89.10;;;;;;2066171;28;20182;-66
2021/09/10 04:43:11;;;;;;;10.00;7.93;;;14.20;89.40;;;;;;2065299;28;20649;-66
2021/09/10 04:44:12;;;;;;;9.37;7.50;;;14.20;89.30;;;;;;2065349;28;20183;-66
2021/09/10 04:45:13;;;;;;;10.87;7.67;;;14.20;89.40;;;;;;2065913;28;20183;-66
2021/09/10 04:46:13;;;;;;;9.37;7.10;;;14.20;89.80;;;;;;2065125;28;20575;-66
2021/09/10 04:47:14;;;;;;;9.77;7.53;;;14.20;90.00;;;;;;2065537;28;20194;-66
2021/09/10 04:48:15;;;;;;;8.43;6.93;;;14.20;90.10;;;;;;2066001;28;20673;-66
2021/09/10 04:49:15;;;;;;;9.70;7.00;;;14.20;90.00;;;;;;2066002;28;20174;-66
2021/09/10 04:50:16;;;;;;;9.47;7.03;;;14.20;89.90;;;;;;2065306;28;20175;-67
2021/09/10 04:51:17;;;;;;;9.83;7.10;;;14.30;89.70;;;;;;2065005;28;20483;-66
2021/09/10 04:52:17;;;;;;;10.10;6.43;;;14.30;89.50;;;;;;2065795;28;20171;-66
2021/09/10 04:53:18;;;;;;;9.40;7.03;;;14.30;89.20;;;;;;2066118;28;20266;-66
2021/09/10 04:54:19;;;;;;;9.77;7.20;;;14.40;88.90;;;;;;2065930;28;20174;-67
2021/09/10 04:55:20;;;;;;;8.90;6.80;;;14.40;88.30;;;;;;2065006;28;20220;-66
2021/09/10 04:56:20;;;;;;;8.10;6.80;;;14.50;88.00;;;;;;2065864;28;20167;-66
2021/09/10 04:57:21;;;;;;;8.13;6.57;;;14.50;87.60;;;;;;2065907;28;20174;-66
2021/09/10 04:58:23;;;;;;;10.63;6.93;;;14.60;87.30;;;;;;2065889;28;20511;-65
2021/09/10 04:59:24;;;;;;;11.43;7.00;;;14.60;87.00;;;;;;2065884;28;20544;-66
2021/09/10 05:00:24;;;;;;;10.50;7.03;;;14.60;86.90;;;;;;2065802;28;20198;-66
2021/09/10 05:01:25;;;;;;;10.43;7.70;;;14.60;87.10;;;;;;2065598;28;20669;-67
2021/09/10 05:02:26;;;;;;;12.87;7.07;;;14.60;87.30;;;;;;2065867;28;20174;-66
2021/09/10 05:03:26;;;;;;;9.77;6.87;;;14.60;87.00;;;;;;2065823;28;20215;-66
2021/09/10 05:04:27;;;;;;;10.20;7.97;;;14.60;86.90;;;;;;2065691;28;20179;-66
2021/09/10 05:05:28;;;;;;;9.57;7.37;;;14.60;86.90;;;;;;2065672;28;20186;-66
2021/09/10 05:06:29;;;;;;;9.43;7.17;;;14.70;86.90;;;;;;2065771;28;20162;-67
2021/09/10 05:07:29;;;;;;;8.97;7.07;;;14.70;86.80;;;;;;2065201;28;20550;-67
2021/09/10 05:08:30;;;;;;;10.20;7.40;;;14.70;87.00;;;;;;2065110;28;20182;-66
2021/09/10 05:09:31;;;;;;;10.03;8.73;;;14.60;87.20;;;;;;2065163;28;20273;-68
2021/09/10 05:10:31;;;;;;;11.10;7.07;;;14.60;87.60;;;;;;2065203;28;20181;-67
2021/09/10 05:11:32;;;;;;;7.23;6.27;;;14.70;87.60;;;;;;2065510;28;20439;-66
2021/09/10 05:12:33;;;;;;;14.13;7.60;;;14.60;87.50;;;;;;2065665;28;20182;-68
2021/09/10 05:13:33;;;;;;;10.20;6.93;;;14.70;87.40;;;;;;2065283;28;20186;-67
2021/09/10 05:14:34;;;;;;;9.07;6.77;;;14.60;87.70;;;;;;2057041;28;20211;-66
2021/09/10 05:15:35;;;;;;;9.80;7.97;;;14.60;87.80;;;;;;2065183;28;20265;-68
2021/09/10 05:16:37;;;;;;;14.00;7.60;;;14.60;87.40;;;;;;2065689;28;20193;-66
2021/09/10 05:17:37;;;;;;;10.20;7.60;;;14.70;86.90;;;;;;2065099;28;20256;-67